^^
Saratoga-Weather Station Historical Data
Daily Summary for June 23, 2022 Units:  English    Metric   Both
Daily Weekly Monthly Yearly Custom
  High: Low: Average:
Temperature: 86.5 °F 61.5 °F 73 °F
Dew Point: 69.8 °F 60.1 °F 64.8 °F
Humidity: 96% 48% 77%
Wind Speed: 13mph 0mph 0.9mph
Wind Gust: 22mph - -
Wind- - SSE
Pressure: 29.9 in 29.7 in -
Precipitation: 0.38 in    
Historical Graphs
 
 
Tabular Data for June 23, 2022
Time Temperature Dew Point Pressure Wind Wind Speed Wind Gust Humidity Rainfall Rate (Hourly) solar
00:04 67.5 °F 65.1 °F 29.8 in Calm     92% 0 in 0 W/m2
00:09 67.5 °F 65.1 °F 29.8 in Calm     92% 0 in 0 W/m2
00:14 67.5 °F 65.1 °F 29.8 in Calm     92% 0 in 0 W/m2
00:19 67.3 °F 64.9 °F 29.8 in Calm     92% 0 in 0 W/m2
00:24 67.1 °F 64.8 °F 29.8 in Calm     92% 0 in 0 W/m2
00:29 66.9 °F 64.6 °F 29.8 in Calm     92% 0 in 0 W/m2
00:34 66.7 °F 64.4 °F 29.8 in Calm     92% 0 in 0 W/m2
00:39 66.7 °F 64.4 °F 29.8 in Calm     92% 0 in 0 W/m2
00:44 66.6 °F 64.2 °F 29.8 in Calm     92% 0 in 0 W/m2
00:49 66.4 °F 64 °F 29.8 in Calm     92% 0 in 0 W/m2
00:54 66.2 °F 63.9 °F 29.8 in Calm     92% 0 in 0 W/m2
00:59 66 °F 63.9 °F 29.8 in Calm     93% 0 in 0 W/m2
01:04 66 °F 63.9 °F 29.8 in Calm     93% 0 in 0 W/m2
01:09 65.8 °F 63.7 °F 29.8 in Calm     93% 0 in 0 W/m2
01:14 65.8 °F 63.7 °F 29.8 in Calm     93% 0 in 0 W/m2
01:19 65.7 °F 63.5 °F 29.8 in Calm     93% 0 in 0 W/m2
01:24 65.7 °F 63.5 °F 29.8 in Calm     93% 0 in 0 W/m2
01:29 65.5 °F 63.3 °F 29.8 in Calm     93% 0 in 0 W/m2
01:35 65.3 °F 63.1 °F 29.8 in Calm     93% 0 in 0 W/m2
01:40 65.1 °F 63 °F 29.8 in Calm     93% 0 in 0 W/m2
01:45 65.1 °F 63 °F 29.8 in Calm     93% 0 in 0 W/m2
01:50 64.9 °F 62.8 °F 29.8 in Calm     93% 0 in 0 W/m2
01:55 64.8 °F 63 °F 29.8 in Calm     94% 0 in 0 W/m2
02:00 64.8 °F 63 °F 29.8 in Calm     94% 0 in 0 W/m2
02:05 64.6 °F 62.8 °F 29.8 in Calm     94% 0 in 0 W/m2
02:10 64.4 °F 62.6 °F 29.8 in Calm     94% 0 in 0 W/m2
02:15 64.4 °F 62.6 °F 29.8 in Calm     94% 0 in 0 W/m2
02:20 64.2 °F 62.4 °F 29.8 in Calm     94% 0 in 0 W/m2
02:25 64.2 °F 62.4 °F 29.8 in Calm     94% 0 in 0 W/m2
02:30 64 °F 62.2 °F 29.8 in Calm     94% 0 in 0 W/m2
02:35 64 °F 62.2 °F 29.8 in Calm     94% 0 in 0 W/m2
02:40 64 °F 62.2 °F 29.8 in Calm     94% 0 in 0 W/m2
02:45 63.9 °F 62.1 °F 29.8 in Calm     94% 0 in 0 W/m2
02:50 63.9 °F 62.1 °F 29.8 in Calm     94% 0 in 0 W/m2
02:55 63.7 °F 61.9 °F 29.8 in Calm     94% 0 in 0 W/m2
03:00 63.7 °F 62.2 °F 29.8 in Calm     95% 0 in 0 W/m2
03:05 63.7 °F 62.2 °F 29.8 in Calm     95% 0 in 0 W/m2
03:10 63.5 °F 62.1 °F 29.8 in Calm     95% 0 in 0 W/m2
03:15 63.5 °F 62.1 °F 29.8 in Calm     95% 0 in 0 W/m2
03:20 63.3 °F 61.9 °F 29.8 in Calm     95% 0 in 0 W/m2
03:25 63.3 °F 61.9 °F 29.8 in Calm     95% 0 in 0 W/m2
03:30 63.1 °F 61.7 °F 29.8 in Calm     95% 0 in 0 W/m2
03:35 63.1 °F 61.7 °F 29.8 in Calm     95% 0 in 0 W/m2
03:40 63 °F 61.5 °F 29.8 in Calm     95% 0 in 0 W/m2
03:45 62.8 °F 61.3 °F 29.8 in Calm   2 mph 95% 0 in 0 W/m2
03:50 62.8 °F 61.3 °F 29.8 in SSE 0.9 mph 1 mph 95% 0 in 0 W/m2
03:55 62.8 °F 61.3 °F 29.8 in Calm   2 mph 95% 0 in 0 W/m2
04:00 62.4 °F 61 °F 29.8 in Calm   1 mph 95% 0 in 0 W/m2
04:05 62.4 °F 61 °F 29.8 in Calm     95% 0 in 0 W/m2
04:10 62.4 °F 61 °F 29.8 in Calm   1 mph 95% 0 in 0 W/m2
04:15 62.4 °F 61 °F 29.8 in Calm     95% 0 in 0 W/m2
04:20 62.4 °F 61 °F 29.8 in Calm     95% 0 in 0 W/m2
04:25 62.2 °F 60.8 °F 29.8 in Calm     95% 0 in 0 W/m2
04:30 62.2 °F 60.8 °F 29.8 in Calm     95% 0 in 0 W/m2
04:35 62.2 °F 60.8 °F 29.8 in Calm     95% 0 in 0 W/m2
04:40 62.2 °F 60.8 °F 29.8 in Calm     95% 0 in 0 W/m2
04:45 62.2 °F 60.8 °F 29.8 in Calm     95% 0 in 0 W/m2
04:50 62.1 °F 60.6 °F 29.8 in Calm     95% 0 in 0 W/m2
04:55 62.1 °F 60.6 °F 29.8 in Calm     95% 0 in 0 W/m2
05:00 61.9 °F 60.4 °F 29.8 in Calm     95% 0 in 0 W/m2
05:05 61.9 °F 60.8 °F 29.8 in Calm     96% 0 in 0 W/m2
05:10 61.9 °F 60.8 °F 29.8 in Calm     96% 0 in 0 W/m2
05:15 61.9 °F 60.8 °F 29.8 in Calm     96% 0 in 0 W/m2
05:20 61.9 °F 60.8 °F 29.8 in Calm     96% 0 in 0 W/m2
05:25 61.7 °F 60.6 °F 29.8 in Calm     96% 0 in 0 W/m2
05:30 61.5 °F 60.4 °F 29.8 in Calm     96% 0 in 0 W/m2
05:35 61.5 °F 60.1 °F 29.8 in Calm     95% 0 in 0 W/m2
05:40 61.5 °F 60.4 °F 29.9 in Calm     96% 0 in 5 W/m2
05:45 61.5 °F 60.4 °F 29.8 in Calm     96% 0 in 5 W/m2
05:50 61.5 °F 60.4 °F 29.8 in Calm     96% 0 in 7 W/m2
05:55 61.5 °F 60.4 °F 29.8 in Calm     96% 0 in 11 W/m2
06:00 61.7 °F 60.6 °F 29.8 in Calm     96% 0 in 11 W/m2
06:05 61.7 °F 60.6 °F 29.8 in Calm     96% 0 in 11 W/m2
06:10 61.7 °F 60.6 °F 29.8 in Calm     96% 0 in 11 W/m2
06:15 61.5 °F 60.4 °F 29.8 in Calm     96% 0 in 14 W/m2
06:20 61.5 °F 60.4 °F 29.8 in Calm     96% 0 in 21 W/m2
06:25 61.5 °F 60.4 °F 29.8 in Calm   1 mph 96% 0 in 32 W/m2
06:30 61.5 °F 60.4 °F 29.8 in Calm     96% 0 in 42 W/m2
06:35 61.9 °F 60.8 °F 29.8 in Calm     96% 0 in 49 W/m2
06:40 62.1 °F 61 °F 29.8 in Calm     96% 0 in 51 W/m2
06:45 62.2 °F 61.2 °F 29.8 in Calm     96% 0 in 47 W/m2
06:50 62.6 °F 61.5 °F 29.8 in Calm   3 mph 96% 0 in 49 W/m2
06:55 62.8 °F 61.7 °F 29.8 in ENE 0.9 mph 1 mph 96% 0 in 67 W/m2
07:00 62.8 °F 61.7 °F 29.8 in ENE 0.9 mph 3 mph 96% 0 in 79 W/m2
07:05 63 °F 61.9 °F 29.8 in NE 2.9 mph 3 mph 96% 0 in 81 W/m2
07:10 63.1 °F 62.1 °F 29.8 in East 0.9 mph 3 mph 96% 0 in 76 W/m2
07:15 63.5 °F 62.4 °F 29.9 in ENE 0.9 mph 2 mph 96% 0 in 76 W/m2
07:20 63.7 °F 62.6 °F 29.9 in East 2 mph 3 mph 96% 0 in 137 W/m2
07:25 64 °F 63 °F 29.9 in Calm   1 mph 96% 0 in 160 W/m2
07:30 64.8 °F 63.7 °F 29.9 in NE 2 mph 3 mph 96% 0 in 167 W/m2
07:35 65.5 °F 64 °F 29.9 in Calm   2 mph 95% 0 in 179 W/m2
07:40 66 °F 64.2 °F 29.9 in Calm   2 mph 94% 0 in 193 W/m2
07:45 66.7 °F 64.6 °F 29.9 in Calm   1 mph 93% 0 in 204 W/m2
07:50 67.5 °F 64.4 °F 29.9 in NE 2 mph 2 mph 90% 0 in 214 W/m2
07:55 68.2 °F 64.4 °F 29.9 in NE 0.9 mph 2 mph 88% 0 in 227 W/m2
08:00 68.5 °F 64.8 °F 29.9 in NE 0.9 mph 2 mph 88% 0 in 241 W/m2
08:05 69.1 °F 64.8 °F 29.9 in East 0.9 mph 2 mph 86% 0 in 255 W/m2
08:10 69.3 °F 64.9 °F 29.9 in East 0.9 mph 2 mph 86% 0 in 269 W/m2
08:15 70 °F 65.3 °F 29.9 in ENE 0.9 mph 5 mph 85% 0 in 279 W/m2
08:20 70.5 °F 65.5 °F 29.9 in East 0.9 mph 2 mph 84% 0 in 292 W/m2
08:25 71.1 °F 65.7 °F 29.9 in ENE 0.9 mph 5 mph 83% 0 in 183 W/m2
08:30 71.2 °F 65.5 °F 29.9 in East 2 mph 3 mph 82% 0 in 146 W/m2
08:35 71.1 °F 65.7 °F 29.9 in SE 0.9 mph 2 mph 83% 0 in 84 W/m2
08:40 71.2 °F 65.5 °F 29.9 in ESE 2 mph 3 mph 82% 0 in 84 W/m2
08:45 71.4 °F 65.7 °F 29.9 in East 2 mph 3 mph 82% 0 in 77 W/m2
08:50 71.4 °F 65.3 °F 29.9 in NNE 0.9 mph 4 mph 81% 0 in 81 W/m2
08:55 71.2 °F 65.1 °F 29.9 in ESE 4 mph 4 mph 81% 0 in 81 W/m2
09:00 71.2 °F 65.5 °F 29.9 in ESE 2.9 mph 4 mph 82% 0 in 84 W/m2
09:05 71.8 °F 65.7 °F 29.9 in ENE 2.9 mph 6 mph 81% 0 in 95 W/m2
09:10 72 °F 65.8 °F 29.9 in Calm   4 mph 81% 0 in 93 W/m2
09:15 72.1 °F 66 °F 29.9 in East 2 mph 3 mph 81% 0 in 105 W/m2
09:21 72.3 °F 66.6 °F 29.9 in ENE 2 mph 3 mph 82% 0 in 130 W/m2
09:26 72.9 °F 66.4 °F 29.9 in East 2.9 mph 3 mph 80% 0 in 109 W/m2
09:31 73 °F 66.2 °F 29.9 in NNW 2 mph 3 mph 79% 0 in 93 W/m2
09:36 72.9 °F 66.4 °F 29.9 in Calm   1 mph 80% 0 in 116 W/m2
09:41 73.2 °F 66.7 °F 29.9 in ENE 0.9 mph 3 mph 80% 0 in 135 W/m2
09:46 73.8 °F 66.4 °F 29.9 in Calm   4 mph 78% 0 in 148 W/m2
09:51 73.2 °F 66 °F 29.9 in North 2 mph 5 mph 78% 0 in 169 W/m2
09:56 73 °F 66.2 °F 29.9 in Calm   1 mph 79% 0 in 195 W/m2
10:01 73.8 °F 66.9 °F 29.9 in ESE 2.9 mph 5 mph 79% 0 in 378 W/m2
10:06 74.5 °F 67.1 °F 29.9 in NE 2.9 mph 3 mph 78% 0 in 578 W/m2
10:11 74.8 °F 67.1 °F 29.9 in ESE 2 mph 6 mph 77% 0 in 621 W/m2
10:16 74.8 °F 66.7 °F 29.9 in ENE 4 mph 4 mph 76% 0 in 186 W/m2
10:21 74.8 °F 67.1 °F 29.9 in East 0.9 mph 6 mph 77% 0 in 250 W/m2
10:26 75.2 °F 67.8 °F 29.9 in East 4 mph 4 mph 78% 0 in 499 W/m2
10:31 75.6 °F 67.8 °F 29.9 in East 2 mph 3 mph 77% 0 in 638 W/m2
10:36 75.7 °F 67.6 °F 29.9 in Calm   6 mph 76% 0 in 682 W/m2
10:41 75.9 °F 67.5 °F 29.9 in ESE 0.9 mph 3 mph 75% 0 in 186 W/m2
10:46 75.6 °F 67.1 °F 29.9 in Calm   2 mph 75% 0 in 311 W/m2
10:51 75.6 °F 67.5 °F 29.9 in Calm   3 mph 76% 0 in 260 W/m2
10:56 75.7 °F 67.3 °F 29.8 in ENE 0.9 mph 4 mph 75% 0 in 287 W/m2
11:01 75.7 °F 67.3 °F 29.9 in ENE 2 mph 3 mph 75% 0 in 359 W/m2
11:06 75.9 °F 67.5 °F 29.8 in Calm   2 mph 75% 0 in 745 W/m2
11:11 76.3 °F 67.5 °F 29.8 in SE 0.9 mph 6 mph 74% 0 in 279 W/m2
11:16 76.1 °F 67.6 °F 29.8 in NNE 0.9 mph 2 mph 75% 0 in 352 W/m2
11:21 76.3 °F 67.8 °F 29.8 in ESE 0.9 mph 1 mph 75% 0 in 863 W/m2
11:26 76.8 °F 67.8 °F 29.8 in Calm   3 mph 74% 0 in 281 W/m2
11:31 77.2 °F 67.8 °F 29.8 in North 0.9 mph 2 mph 73% 0 in 186 W/m2
11:36 77 °F 67.3 °F 29.8 in NW 0.9 mph 2 mph 72% 0 in 396 W/m2
11:41 77.2 °F 67.5 °F 29.8 in West 0.9 mph 3 mph 72% 0 in 856 W/m2
11:46 77 °F 67.3 °F 29.8 in WNW 0.9 mph 2 mph 72% 0 in 745 W/m2
11:51 77.4 °F 67.6 °F 29.8 in Calm   2 mph 72% 0 in 745 W/m2
11:56 77.5 °F 67.5 °F 29.8 in West 0.9 mph 3 mph 71% 0 in 255 W/m2
12:01 77.7 °F 68 °F 29.8 in Calm   2 mph 72% 0 in 323 W/m2
12:06 78.3 °F 68 °F 29.8 in Calm   3 mph 71% 0 in 504 W/m2
12:11 79 °F 68.7 °F 29.8 in ESE 4 mph 5 mph 71% 0 in 559 W/m2
12:16 78.6 °F 67.1 °F 29.8 in NW 2 mph 2 mph 68% 0 in 265 W/m2
12:21 78.4 °F 67.8 °F 29.8 in ESE 2 mph 6 mph 70% 0 in 287 W/m2
12:26 78.4 °F 67.5 °F 29.8 in East 2.9 mph 6 mph 69% 0 in 213 W/m2
12:31 78.3 °F 66.7 °F 29.8 in Calm   1 mph 68% 0 in 234 W/m2
12:36 78.3 °F 67.3 °F 29.8 in Calm   6 mph 69% 0 in 243 W/m2
12:41 78.4 °F 67.8 °F 29.8 in Calm   3 mph 70% 0 in 995 W/m2
12:46 79.2 °F 67.6 °F 29.8 in Calm   4 mph 68% 0 in 891 W/m2
12:51 80.1 °F 66.7 °F 29.8 in ENE 0.9 mph 2 mph 64% 0 in 998 W/m2
12:56 80.4 °F 67.6 °F 29.8 in East 2.9 mph 7 mph 65% 0 in 816 W/m2
13:01 81 °F 67.1 °F 29.8 in East 2.9 mph 5 mph 63% 0 in 253 W/m2
13:06 81 °F 66.2 °F 29.8 in North 2 mph 3 mph 61% 0 in 974 W/m2
13:11 81 °F 66.7 °F 29.8 in WNW 2.9 mph 3 mph 62% 0 in 946 W/m2
13:16 80.8 °F 66.6 °F 29.8 in ENE 2.9 mph 3 mph 62% 0 in 977 W/m2
13:21 81 °F 66.2 °F 29.8 in Calm   3 mph 61% 0 in 1023 W/m2
13:26 81.3 °F 66.6 °F 29.8 in Calm   5 mph 61% 0 in 1011 W/m2
13:31 82 °F 66.7 °F 29.8 in SE 2.9 mph 4 mph 60% 0 in 983 W/m2
13:36 82.6 °F 65.8 °F 29.8 in ENE 2 mph 8 mph 57% 0 in 937 W/m2
13:41 82.4 °F 64 °F 29.8 in West 2 mph 2 mph 54% 0 in 923 W/m2
13:46 82.2 °F 65.5 °F 29.8 in NW 0.9 mph 3 mph 57% 0 in 942 W/m2
13:51 82.6 °F 65.8 °F 29.8 in East 0.9 mph 1 mph 57% 0 in 942 W/m2
13:56 82.8 °F 64.4 °F 29.8 in West 4 mph 7 mph 54% 0 in 953 W/m2
14:01 82.8 °F 64.9 °F 29.8 in West 2 mph 6 mph 55% 0 in 949 W/m2
14:06 82.8 °F 66 °F 29.8 in NE 2 mph 3 mph 57% 0 in 972 W/m2
14:11 82.9 °F 65.1 °F 29.8 in SE 0.9 mph 7 mph 55% 0 in 947 W/m2
14:16 83.1 °F 66.7 °F 29.8 in SSW 2.9 mph 4 mph 58% 0 in 972 W/m2
14:21 83.5 °F 65.1 °F 29.8 in ESE 0.9 mph 7 mph 54% 0 in 967 W/m2
14:26 83.3 °F 64.4 °F 29.8 in Calm   3 mph 53% 0 in 951 W/m2
14:31 83.5 °F 64 °F 29.8 in NNW 2 mph 4 mph 52% 0 in 946 W/m2
14:36 83.8 °F 65.5 °F 29.8 in SE 2.9 mph 4 mph 54% 0 in 965 W/m2
14:41 84.2 °F 65.7 °F 29.8 in NW 2 mph 4 mph 54% 0 in 969 W/m2
14:46 84.7 °F 65.7 °F 29.8 in ESE 4 mph 5 mph 53% 0 in 960 W/m2
14:51 84.7 °F 66.2 °F 29.8 in East 0.9 mph 4 mph 54% 0 in 958 W/m2
14:56 84.9 °F 65.8 °F 29.8 in East 2.9 mph 6 mph 53% 0 in 977 W/m2
15:01 85.1 °F 64.9 °F 29.8 in Calm   3 mph 51% 0 in 1002 W/m2
15:06 84.7 °F 65.1 °F 29.8 in ESE 2 mph 2 mph 52% 0 in 204 W/m2
15:11 84.6 °F 64.9 °F 29.8 in East 0.9 mph 2 mph 52% 0 in 1014 W/m2
15:16 84.6 °F 64.9 °F 29.8 in ESE 2.9 mph 3 mph 52% 0 in 374 W/m2
15:21 84.7 °F 65.1 °F 29.8 in ESE 0.9 mph 2 mph 52% 0 in 969 W/m2
15:26 85.3 °F 64.6 °F 29.8 in East 2.9 mph 4 mph 50% 0 in 1011 W/m2
15:31 84.7 °F 63.5 °F 29.8 in WSW 0.9 mph 4 mph 49% 0 in 237 W/m2
15:36 84.2 °F 65.3 °F 29.8 in ENE 2 mph 3 mph 53% 0 in 227 W/m2
15:41 83.7 °F 63 °F 29.8 in Calm   2 mph 50% 0 in 322 W/m2
15:46 83.7 °F 63.7 °F 29.8 in West 2.9 mph 3 mph 51% 0 in 257 W/m2
15:51 83.5 °F 63.5 °F 29.8 in Calm   1 mph 51% 0 in 343 W/m2
15:57 83.7 °F 65.3 °F 29.8 in East 0.9 mph 1 mph 54% 0 in 311 W/m2
16:02 83.8 °F 64.4 °F 29.8 in West 2 mph 2 mph 52% 0 in 269 W/m2
16:07 84 °F 65.1 °F 29.8 in West 0.9 mph 2 mph 53% 0 in 330 W/m2
16:12 84 °F 66.2 °F 29.8 in NE 0.9 mph 2 mph 55% 0 in 295 W/m2
16:17 84.4 °F 65.3 °F 29.8 in Calm     53% 0 in 341 W/m2
16:22 84.6 °F 65.5 °F 29.8 in SE 4 mph 4 mph 53% 0 in 373 W/m2
16:27 84.7 °F 64.6 °F 29.8 in Calm   1 mph 51% 0 in 835 W/m2
16:32 85.1 °F 64.4 °F 29.8 in ENE 2 mph 3 mph 50% 0 in 225 W/m2
16:37 85.5 °F 65.3 °F 29.8 in SSW 0.9 mph 3 mph 51% 0 in 853 W/m2
16:42 86.4 °F 64.9 °F 29.8 in SSE 0.9 mph 5 mph 49% 0 in 831 W/m2
16:47 86.5 °F 64.6 °F 29.8 in ESE 0.9 mph 4 mph 48% 0 in 220 W/m2
16:52 86.2 °F 64.8 °F 29.8 in ESE 0.9 mph 3 mph 49% 0 in 204 W/m2
16:57 85.8 °F 65.7 °F 29.8 in WNW 2 mph 2 mph 51% 0 in 176 W/m2
17:02 85.3 °F 64.6 °F 29.8 in East 2 mph 3 mph 50% 0 in 186 W/m2
17:07 84.9 °F 65.3 °F 29.8 in Calm   2 mph 52% 0 in 246 W/m2
17:12 84.9 °F 64.8 °F 29.8 in Calm   3 mph 51% 0 in 237 W/m2
17:17 84.9 °F 64.8 °F 29.7 in East 2.9 mph 3 mph 51% 0 in 241 W/m2
17:22 84.9 °F 64.8 °F 29.7 in ESE 0.9 mph 3 mph 51% 0 in 445 W/m2
17:27 84.9 °F 65.8 °F 29.7 in Calm   2 mph 53% 0 in 127 W/m2
17:32 84.7 °F 65.7 °F 29.7 in Calm   1 mph 53% 0 in 153 W/m2
17:37 84.7 °F 67.3 °F 29.7 in ENE 0.9 mph 1 mph 56% 0 in 255 W/m2
17:42 84 °F 66.6 °F 29.7 in WNW 0.9 mph 4 mph 56% 0 in 125 W/m2
17:47 83.5 °F 68.5 °F 29.7 in Calm     61% 0 in 107 W/m2
17:52 82.8 °F 68.4 °F 29.7 in Calm   4 mph 62% 0 in 109 W/m2
17:57 82 °F 68.2 °F 29.7 in West 2 mph 2 mph 63% 0 in 98 W/m2
18:02 81.3 °F 68 °F 29.7 in Calm   1 mph 64% 0 in 90 W/m2
18:07 81 °F 68 °F 29.7 in West 2 mph 2 mph 65% 0 in 102 W/m2
18:12 80.8 °F 68.4 °F 29.7 in Calm     66% 0 in 114 W/m2
18:17 80.6 °F 68.2 °F 29.7 in Calm     66% 0 in 137 W/m2
18:22 80.6 °F 67.3 °F 29.7 in Calm   2 mph 64% 0 in 165 W/m2
18:27 80.8 °F 68 °F 29.7 in Calm   1 mph 65% 0 in 329 W/m2
18:32 81.3 °F 68 °F 29.7 in Calm     64% 0 in 237 W/m2
18:37 81.9 °F 68 °F 29.7 in Calm   2 mph 63% 0 in 188 W/m2
18:42 82.2 °F 68.4 °F 29.7 in Calm   1 mph 63% 0 in 197 W/m2
18:47 82.8 °F 69.8 °F 29.7 in Calm   2 mph 65% 0 in 169 W/m2
18:52 82.8 °F 68.9 °F 29.7 in Calm   1 mph 63% 0 in 139 W/m2
18:57 82.8 °F 68 °F 29.7 in West 0.9 mph 2 mph 61% 0 in 102 W/m2
19:02 82.6 °F 67.8 °F 29.7 in West 0.9 mph 1 mph 61% 0 in 97 W/m2
19:07 83.1 °F 68.7 °F 29.7 in Calm   2 mph 62% 0 in 104 W/m2
19:12 83.7 °F 68.7 °F 29.7 in Calm   1 mph 61% 0 in 93 W/m2
19:17 84 °F 68.2 °F 29.7 in Calm   1 mph 59% 0 in 105 W/m2
19:22 84 °F 68.7 °F 29.7 in Calm     60% 0 in 105 W/m2
19:27 83.8 °F 68.5 °F 29.7 in Calm   1 mph 60% 0 in 105 W/m2
19:32 83.5 °F 68.5 °F 29.7 in West 0.9 mph 1 mph 61% 0 in 104 W/m2
19:37 82.8 °F 68.4 °F 29.7 in Calm   1 mph 62% 0 in 102 W/m2
19:42 82.2 °F 67.5 °F 29.7 in West 0.9 mph 2 mph 61% 0 in 109 W/m2
19:47 82 °F 67.3 °F 29.7 in WSW 0.9 mph 2 mph 61% 0 in 113 W/m2
19:52 81.7 °F 67.5 °F 29.7 in WSW 0.9 mph 2 mph 62% 0 in 109 W/m2
19:57 81.3 °F 67.5 °F 29.7 in Calm   1 mph 63% 0 in 105 W/m2
20:02 81.1 °F 67.3 °F 29.7 in Calm   1 mph 63% 0 in 91 W/m2
20:07 81 °F 67.6 °F 29.7 in Calm     64% 0 in 76 W/m2
20:12 80.8 °F 67.5 °F 29.7 in Calm   1 mph 64% 0 in 63 W/m2
20:17 80.4 °F 67.6 °F 29.7 in Calm   1 mph 65% 0 in 53 W/m2
20:22 80.2 °F 67.8 °F 29.7 in Calm     66% 0 in 44 W/m2
20:27 80.1 °F 67.3 °F 29.7 in Calm   1 mph 65% 0 in 33 W/m2
20:32 79.9 °F 67.5 °F 29.7 in Calm     66% 0 in 28 W/m2
20:37 79.3 °F 66.6 °F 29.7 in Calm     65% 0 in 25 W/m2
20:42 79.2 °F 66.7 °F 29.7 in Calm     66% 0 in 21 W/m2
20:47 78.6 °F 66.4 °F 29.7 in Calm   1 mph 66% 0 in 19 W/m2
20:52 78.4 °F 66.6 °F 29.7 in Calm   1 mph 67% 0 in 14 W/m2
20:57 78.3 °F 65.5 °F 29.7 in Calm   1 mph 65% 0 in 12 W/m2
21:02 78.3 °F 66.4 °F 29.7 in Calm     67% 0 in 9 W/m2
21:07 78.1 °F 66.7 °F 29.7 in Calm   1 mph 68% 0 in 7 W/m2
21:12 77.7 °F 66.4 °F 29.7 in Calm     68% 0 in 5 W/m2
21:17 77.5 °F 66.2 °F 29.7 in WSW 0.9 mph 2 mph 68% 0 in 0 W/m2
21:22 77.2 °F 66.6 °F 29.7 in Calm     70% 0 in 0 W/m2
21:27 77 °F 66.4 °F 29.7 in West 2.9 mph 3 mph 70% 0 in 0 W/m2
21:32 76.1 °F 66.7 °F 29.7 in NE 2.9 mph 22 mph 73% 0.02 in 0 W/m2
21:37 73.6 °F 66.7 °F 29.7 in WSW 13 mph 18 mph 79% 0.2 in 0 W/m2
21:42 70.2 °F 64.8 °F 29.7 in West 6 mph 21 mph 83% 0.29 in 0 W/m2
21:47 68.5 °F 63.9 °F 29.7 in WSW 2.9 mph 9 mph 85% 0.38 in 0 W/m2
21:52 67.5 °F 63.1 °F 29.7 in West 2.9 mph 6 mph 86% 0.38 in 0 W/m2
21:57 66.7 °F 62.8 °F 29.7 in West 6 mph 9 mph 87% 0.38 in 0 W/m2
22:02 66.4 °F 62.8 °F 29.7 in WSW 4 mph 10 mph 88% 0.38 in 0 W/m2
22:07 66.2 °F 63.1 °F 29.7 in WNW 2.9 mph 11 mph 90% 0.38 in 0 W/m2
22:12 66 °F 63 °F 29.8 in WNW 2.9 mph 11 mph 90% 0.38 in 0 W/m2
22:17 65.8 °F 62.4 °F 29.8 in SW 0.9 mph 4 mph 89% 0.38 in 0 W/m2
22:22 65.8 °F 62.8 °F 29.8 in East 0.9 mph 11 mph 90% 0.38 in 0 W/m2
22:27 65.7 °F 62.6 °F 29.8 in WNW 0.9 mph 2 mph 90% 0.38 in 0 W/m2
22:32 65.7 °F 62.6 °F 29.8 in West 0.9 mph 3 mph 90% 0.36 in 0 W/m2
22:37 65.7 °F 62.6 °F 29.8 in West 0.9 mph 2 mph 90% 0.17 in 0 W/m2
22:42 65.7 °F 63 °F 29.8 in Calm   2 mph 91% 0.09 in 0 W/m2
22:47 65.5 °F 62.4 °F 29.8 in Calm   1 mph 90% 0 in 0 W/m2
22:52 65.7 °F 62.6 °F 29.8 in Calm   2 mph 90% 0 in 0 W/m2
22:57 65.7 °F 62.6 °F 29.8 in Calm   2 mph 90% 0 in 0 W/m2
23:02 65.7 °F 63 °F 29.8 in NW 0.9 mph 1 mph 91% 0 in 0 W/m2
23:07 65.5 °F 62.8 °F 29.8 in Calm   2 mph 91% 0 in 0 W/m2
23:12 65.5 °F 63.1 °F 29.8 in NW 2 mph 2 mph 92% 0 in 0 W/m2
23:17 65.3 °F 63 °F 29.8 in NW 0.9 mph 1 mph 92% 0 in 0 W/m2
23:22 65.1 °F 62.8 °F 29.8 in NW 0.9 mph 1 mph 92% 0 in 0 W/m2
23:27 65.1 °F 63 °F 29.8 in NW 0.9 mph 1 mph 93% 0 in 0 W/m2
23:32 64.9 °F 62.6 °F 29.8 in WNW 2 mph 2 mph 92% 0 in 0 W/m2
23:37 64.8 °F 62.6 °F 29.8 in Calm   2 mph 93% 0 in 0 W/m2
23:42 64.8 °F 62.6 °F 29.8 in Calm   1 mph 93% 0 in 0 W/m2
23:47 64.8 °F 62.6 °F 29.8 in Calm   1 mph 93% 0 in 0 W/m2
23:52 64.6 °F 62.4 °F 29.8 in WSW 0.9 mph 1 mph 93% 0 in 0 W/m2
23:57 64.4 °F 62.4 °F 29.8 in Calm     93% 0 in 0 W/m2
Juneau County Weather
Compliments of Weather Underground - 4 mb